Time;durP1;ratioP1;P1;durP2;ratioP2;P2;SDS_P1;SDS_P2;PMS_P1;PMS_P2;Temp;Humidity;BMP_temperature;BMP_pressure;BME280_temperature;BME280_humidity;BME280_pressure;Samples;Min_cycle;Max_cycle;Signal;HPM_P1;HPM_P2
2024/01/25 00:00:53;;;;;;;30.43;6.17;;;7.60;99.90;;;;;;5028876;28;20283;-68
2024/01/25 00:03:18;;;;;;;24.50;5.70;;;7.60;99.90;;;;;;5030058;28;20041;-68
2024/01/25 00:05:44;;;;;;;36.50;7.40;;;7.60;99.90;;;;;;5028920;28;20120;-68
2024/01/25 00:08:09;;;;;;;45.63;6.47;;;7.60;99.90;;;;;;5026391;28;20336;-68
2024/01/25 00:10:35;;;;;;;28.53;5.73;;;7.70;99.90;;;;;;5027271;28;20033;-69
2024/01/25 00:13:01;;;;;;;37.77;6.20;;;7.70;99.90;;;;;;5012083;28;20037;-68
2024/01/25 00:15:27;;;;;;;38.85;6.18;;;7.70;99.90;;;;;;5000549;28;20051;-68
2024/01/25 00:17:52;;;;;;;32.78;6.97;;;7.70;99.90;;;;;;5011587;28;20124;-68
2024/01/25 00:20:18;;;;;;;31.20;6.40;;;7.70;99.90;;;;;;5028352;28;20033;-68
2024/01/25 00:22:44;;;;;;;37.33;6.87;;;7.70;99.90;;;;;;5010134;28;20038;-69
2024/01/25 00:25:09;;;;;;;36.07;6.10;;;7.70;99.90;;;;;;5037516;28;20374;-69
2024/01/25 00:27:35;;;;;;;30.83;6.18;;;7.80;99.90;;;;;;5029158;28;20045;-68
2024/01/25 00:30:00;;;;;;;35.10;5.90;;;7.70;99.90;;;;;;5011271;28;20393;-70
2024/01/25 00:32:26;;;;;;;31.60;4.80;;;7.70;99.90;;;;;;5009166;28;20072;-69
2024/01/25 00:34:52;;;;;;;31.20;6.70;;;7.60;99.90;;;;;;5028869;28;20040;-68
2024/01/25 00:37:18;;;;;;;35.13;6.05;;;7.60;99.90;;;;;;5029316;28;20044;-68
2024/01/25 00:39:44;;;;;;;32.33;6.40;;;7.60;99.90;;;;;;5029297;28;20033;-69
2024/01/25 00:42:13;;;;;;;45.05;8.50;;;7.60;99.90;;;;;;5011417;28;20044;-69
2024/01/25 00:44:38;;;;;;;30.25;5.22;;;7.50;99.90;;;;;;5027988;28;20034;-70
2024/01/25 00:47:04;;;;;;;35.05;6.57;;;7.50;99.90;;;;;;5011480;28;20113;-69
2024/01/25 00:49:30;;;;;;;33.53;7.18;;;7.40;99.90;;;;;;5029005;28;20041;-69
2024/01/25 00:52:02;;;;;;;33.75;6.60;;;7.40;99.90;;;;;;5011286;28;20409;-68
2024/01/25 00:54:28;;;;;;;36.63;6.88;;;7.40;99.90;;;;;;5029008;28;20052;-69
2024/01/25 00:56:54;;;;;;;46.67;7.80;;;7.40;99.90;;;;;;5011229;28;20042;-68
2024/01/25 00:59:20;;;;;;;32.53;6.78;;;7.30;99.90;;;;;;4994926;28;20116;-69
2024/01/25 01:01:46;;;;;;;;;;;7.30;99.90;;;;;;5028871;28;20393;-68
2024/01/25 01:04:12;;;;;;;36.60;5.90;;;7.30;99.90;;;;;;5024257;28;20004;-68
2024/01/25 01:06:38;;;;;;;40.22;6.60;;;7.20;99.90;;;;;;5028861;28;20144;-69
2024/01/25 01:09:04;;;;;;;42.30;8.05;;;7.30;99.90;;;;;;5028733;28;20037;-68
2024/01/25 01:11:30;;;;;;;45.00;8.33;;;7.20;99.90;;;;;;5029229;28;20041;-68
2024/01/25 01:13:56;;;;;;;33.13;5.43;;;7.10;99.90;;;;;;5029636;28;20041;-68
2024/01/25 01:16:21;;;;;;;37.78;7.22;;;7.10;99.90;;;;;;5008886;28;20048;-69
2024/01/25 01:18:47;;;;;;;46.60;6.38;;;7.00;99.90;;;;;;5030360;28;20045;-68
2024/01/25 01:21:12;;;;;;;32.40;6.43;;;6.90;99.90;;;;;;5012792;28;20037;-68
2024/01/25 01:23:38;;;;;;;37.17;7.20;;;6.80;99.90;;;;;;5021521;28;20493;-68
2024/01/25 01:26:04;;;;;;;33.37;6.30;;;6.70;99.90;;;;;;5029582;28;20037;-70
2024/01/25 01:28:30;;;;;;;41.30;7.25;;;6.60;99.90;;;;;;5009789;28;20493;-69
2024/01/25 01:30:55;;;;;;;32.37;6.90;;;6.50;99.90;;;;;;5027934;28;20051;-68
2024/01/25 01:33:21;;;;;;;43.17;7.20;;;6.50;99.90;;;;;;5001424;28;20266;-68
2024/01/25 01:35:47;;;;;;;41.75;7.20;;;6.40;99.90;;;;;;5010227;28;20401;-68
2024/01/25 01:38:12;;;;;;;42.00;7.40;;;6.30;99.90;;;;;;5028614;28;20045;-69
2024/01/25 01:40:38;;;;;;;36.13;6.97;;;6.30;99.90;;;;;;5028574;28;20782;-71
2024/01/25 01:43:03;;;;;;;39.73;7.43;;;6.30;99.90;;;;;;5042384;28;20580;-68
2024/01/25 01:45:29;;;;;;;48.00;8.43;;;6.20;99.90;;;;;;5009778;28;20064;-68
2024/01/25 01:47:56;;;;;;;40.37;6.57;;;6.20;99.90;;;;;;5028830;28;20070;-68
2024/01/25 01:50:21;;;;;;;;;;;6.10;99.90;;;;;;4994384;28;20283;-68
2024/01/25 01:52:49;;;;;;;45.13;7.43;;;6.20;99.90;;;;;;5028072;28;19917;-69
2024/01/25 01:55:15;;;;;;;30.73;5.22;;;6.10;99.90;;;;;;5027818;28;20121;-68
2024/01/25 01:57:41;;;;;;;37.50;7.10;;;6.10;99.90;;;;;;5010070;28;20029;-69
2024/01/25 02:00:09;;;;;;;34.05;7.22;;;6.10;99.90;;;;;;5010864;28;20095;-69
2024/01/25 02:02:35;;;;;;;37.53;6.55;;;6.00;99.90;;;;;;5020091;28;20037;-68
2024/01/25 02:05:00;;;;;;;43.00;6.20;;;6.00;99.90;;;;;;5005065;28;20048;-68
2024/01/25 02:07:27;;;;;;;42.27;7.10;;;6.00;99.90;;;;;;5028116;28;20029;-70
2024/01/25 02:09:52;;;;;;;37.75;7.45;;;5.90;99.90;;;;;;5028373;28;20041;-69
2024/01/25 02:12:18;;;;;;;47.17;8.40;;;5.90;99.90;;;;;;5027847;28;20163;-69
2024/01/25 02:14:43;;;;;;;36.45;6.97;;;5.80;99.90;;;;;;5030643;28;20029;-68
2024/01/25 02:17:09;;;;;;;43.27;6.73;;;5.80;99.90;;;;;;5040171;28;20116;-67
2024/01/25 02:19:35;;;;;;;42.10;8.70;;;5.80;99.90;;;;;;5031570;28;20029;-68
2024/01/25 02:22:02;;;;;;;49.88;7.45;;;5.80;99.90;;;;;;5028115;28;20124;-69
2024/01/25 02:24:28;;;;;;;46.50;6.78;;;5.80;99.90;;;;;;5010419;28;20041;-67
2024/01/25 02:26:53;;;;;;;36.80;7.67;;;5.80;99.90;;;;;;5027882;28;20164;-68
2024/01/25 02:29:20;;;;;;;51.67;9.03;;;5.80;99.90;;;;;;5027536;28;20497;-67
2024/01/25 02:31:45;;;;;;;36.28;7.88;;;5.70;99.90;;;;;;5009630;28;20029;-68
2024/01/25 02:34:11;;;;;;;45.77;7.53;;;5.70;99.90;;;;;;5024020;28;20228;-69
2024/01/25 02:36:37;;;;;;;48.60;8.23;;;5.70;99.90;;;;;;5027006;28;20042;-69
2024/01/25 02:39:04;;;;;;;44.23;6.90;;;5.70;99.90;;;;;;5010082;28;20124;-68
2024/01/25 02:41:30;;;;;;;51.95;7.47;;;5.70;99.90;;;;;;5017660;28;20053;-68
2024/01/25 02:43:56;;;;;;;46.00;7.03;;;5.70;99.90;;;;;;5027647;28;20053;-69
2024/01/25 02:46:22;;;;;;;48.00;8.20;;;5.70;99.90;;;;;;5026915;28;20101;-68
2024/01/25 02:48:47;;;;;;;35.40;7.73;;;5.70;99.90;;;;;;5032931;28;20299;-68
2024/01/25 02:51:14;;;;;;;33.35;6.45;;;5.70;99.90;;;;;;5014070;28;20038;-68
2024/01/25 02:53:39;;;;;;;;;;;5.70;99.90;;;;;;5028529;28;20060;-68
2024/01/25 02:56:06;;;;;;;49.42;8.88;;;5.60;99.90;;;;;;4995841;28;19917;-68
2024/01/25 02:58:31;;;;;;;37.38;7.72;;;5.60;99.90;;;;;;5014929;28;21382;-68
2024/01/25 03:00:57;;;;;;;49.00;7.33;;;5.60;99.90;;;;;;5010017;28;20045;-71
2024/01/25 03:03:23;;;;;;;41.73;6.77;;;5.50;99.90;;;;;;5026019;28;20579;-68
2024/01/25 03:05:50;;;;;;;52.53;8.35;;;5.50;99.90;;;;;;5006672;28;20248;-68
2024/01/25 03:08:16;;;;;;;46.05;6.82;;;5.40;99.90;;;;;;5027297;28;20108;-68
2024/01/25 03:10:41;;;;;;;55.93;7.67;;;5.40;99.90;;;;;;5027402;28;20040;-69
2024/01/25 03:13:07;;;;;;;39.70;5.97;;;5.40;99.90;;;;;;5026206;28;20044;-69
2024/01/25 03:15:33;;;;;;;44.50;7.30;;;5.40;99.90;;;;;;5009616;28;20510;-68
2024/01/25 03:17:58;;;;;;;50.43;7.87;;;5.30;99.90;;;;;;5030051;28;20041;-68
2024/01/25 03:20:24;;;;;;;39.60;7.57;;;5.30;99.90;;;;;;5029620;28;20079;-68
2024/01/25 03:22:50;;;;;;;35.20;7.80;;;5.30;99.90;;;;;;5028550;28;20568;-68
2024/01/25 03:25:15;;;;;;;40.10;6.97;;;5.30;99.90;;;;;;5029169;28;20037;-69
2024/01/25 03:27:41;;;;;;;39.90;6.83;;;5.30;99.90;;;;;;5027532;28;20033;-68
2024/01/25 03:30:07;;;;;;;39.13;7.50;;;5.20;99.90;;;;;;5037684;28;20512;-68
2024/01/25 03:32:34;;;;;;;44.45;8.50;;;5.30;99.90;;;;;;5009168;28;20284;-69
2024/01/25 03:34:59;;;;;;;40.28;7.35;;;5.30;99.90;;;;;;5008853;28;20049;-69
2024/01/25 03:37:25;;;;;;;53.47;8.47;;;5.20;99.90;;;;;;5027954;28;20037;-68
2024/01/25 03:39:50;;;;;;;41.00;7.87;;;5.20;99.90;;;;;;5027096;28;20060;-68
2024/01/25 03:42:16;;;;;;;40.33;8.37;;;5.20;99.90;;;;;;5027778;28;20041;-68
2024/01/25 03:44:42;;;;;;;36.40;7.73;;;5.20;99.90;;;;;;5009584;28;20048;-69
2024/01/25 03:47:08;;;;;;;46.13;8.32;;;5.20;99.90;;;;;;4993229;28;20052;-69
2024/01/25 03:49:34;;;;;;;44.42;6.57;;;5.20;99.90;;;;;;5026451;28;20109;-71
2024/01/25 03:51:59;;;;;;;58.57;8.00;;;5.20;99.90;;;;;;5027123;28;20042;-68
2024/01/25 03:54:25;;;;;;;36.87;7.70;;;5.20;99.90;;;;;;5026605;28;20354;-68
2024/01/25 03:56:51;;;;;;;40.67;8.05;;;5.20;99.90;;;;;;5026955;28;20041;-68
2024/01/25 03:59:16;;;;;;;42.13;7.43;;;5.20;99.90;;;;;;5037658;28;20034;-69
2024/01/25 04:01:46;;;;;;;45.97;8.90;;;5.20;99.90;;;;;;5012534;28;20386;-69
2024/01/25 04:04:15;;;;;;;38.20;8.02;;;5.10;99.90;;;;;;5030192;28;20056;-69
2024/01/25 04:06:42;;;;;;;35.97;5.35;;;5.10;99.90;;;;;;5025577;28;20045;-68
2024/01/25 04:09:08;;;;;;;41.15;7.65;;;5.00;99.90;;;;;;5030252;28;20087;-68
2024/01/25 04:11:35;;;;;;;43.35;6.25;;;5.00;99.90;;;;;;5033372;28;20120;-69
2024/01/25 04:14:00;;;;;;;42.78;7.63;;;5.00;99.90;;;;;;5012541;28;20045;-69
2024/01/25 04:16:26;;;;;;;43.40;7.03;;;4.90;99.90;;;;;;5013553;28;20177;-68
2024/01/25 04:18:52;;;;;;;39.13;8.00;;;4.90;99.90;;;;;;5015365;28;20060;-69
2024/01/25 04:21:17;;;;;;;42.65;7.35;;;4.80;99.90;;;;;;5018488;28;20041;-69
2024/01/25 04:23:43;;;;;;;40.50;7.57;;;4.80;99.90;;;;;;5012335;28;20120;-68
2024/01/25 04:26:09;;;;;;;41.23;7.90;;;4.70;99.90;;;;;;5013601;28;20037;-68
2024/01/25 04:28:34;;;;;;;38.70;7.13;;;4.70;99.90;;;;;;5011895;28;20037;-69
2024/01/25 04:31:01;;;;;;;47.17;7.43;;;4.60;99.90;;;;;;5029383;28;20498;-67
2024/01/25 04:33:27;;;;;;;37.03;7.47;;;4.60;99.90;;;;;;5029490;28;21469;-69
2024/01/25 04:35:52;;;;;;;42.97;7.60;;;4.60;99.90;;;;;;5011870;28;20037;-70
2024/01/25 04:38:18;;;;;;;47.13;8.30;;;4.60;99.90;;;;;;5029591;28;20030;-68
2024/01/25 04:40:44;;;;;;;37.43;7.13;;;4.50;99.90;;;;;;5029820;28;20529;-68
2024/01/25 04:43:09;;;;;;;44.90;9.07;;;4.50;99.90;;;;;;5028953;28;20409;-68
2024/01/25 04:45:35;;;;;;;44.20;7.93;;;4.50;99.90;;;;;;5027211;28;20030;-69
2024/01/25 04:48:00;;;;;;;40.60;7.23;;;4.50;99.90;;;;;;5030748;28;20139;-67
2024/01/25 04:50:26;;;;;;;33.53;7.63;;;4.50;99.90;;;;;;5029149;28;20156;-68
2024/01/25 04:52:52;;;;;;;42.50;8.17;;;4.50;99.90;;;;;;5028891;28;20037;-68
2024/01/25 04:55:17;;;;;;;54.07;7.27;;;4.40;99.90;;;;;;5029021;28;20041;-69
2024/01/25 04:57:43;;;;;;;41.43;8.13;;;4.40;99.90;;;;;;5029628;28;20119;-69
2024/01/25 05:00:10;;;;;;;38.13;6.10;;;4.40;99.90;;;;;;5027569;28;20099;-69
2024/01/25 05:02:35;;;;;;;37.90;6.50;;;4.40;99.90;;;;;;5011407;28;20130;-69
2024/01/25 05:05:01;;;;;;;38.63;6.77;;;4.40;99.90;;;;;;5011199;28;20084;-69
2024/01/25 05:07:27;;;;;;;47.37;7.93;;;4.40;99.90;;;;;;5029571;28;20405;-68
2024/01/25 05:09:52;;;;;;;47.07;9.07;;;4.40;99.90;;;;;;5029508;28;20119;-68
2024/01/25 05:12:18;;;;;;;36.20;8.90;;;4.40;99.90;;;;;;5023144;28;20041;-69
2024/01/25 05:14:43;;;;;;;45.83;6.63;;;4.40;99.90;;;;;;5040860;28;20033;-67
2024/01/25 05:17:09;;;;;;;44.53;8.27;;;4.40;99.90;;;;;;5013557;28;20041;-69
2024/01/25 05:19:35;;;;;;;35.30;7.25;;;4.40;99.90;;;;;;5032884;28;20041;-70
2024/01/25 05:22:05;;;;;;;35.43;6.70;;;4.40;99.90;;;;;;5010317;28;20042;-67
2024/01/25 05:24:32;;;;;;;39.00;6.63;;;4.30;99.90;;;;;;5030984;28;20045;-69
2024/01/25 05:26:58;;;;;;;;;;;4.30;99.90;;;;;;5031273;28;20124;-68
2024/01/25 05:29:23;;;;;;;53.60;8.95;;;4.30;99.90;;;;;;5033204;28;20031;-68
2024/01/25 05:31:49;;;;;;;49.83;9.37;;;4.20;99.90;;;;;;5030531;28;20045;-68
2024/01/25 05:34:15;;;;;;;40.40;6.20;;;4.20;99.90;;;;;;4994916;28;20052;-69
2024/01/25 05:36:41;;;;;;;54.13;9.02;;;4.20;99.90;;;;;;5038128;28;20043;-68
2024/01/25 05:39:07;;;;;;;54.75;9.23;;;4.10;99.90;;;;;;5029782;28;20071;-67
2024/01/25 05:41:33;;;;;;;42.05;8.68;;;4.10;99.90;;;;;;5027889;28;20041;-67
2024/01/25 05:43:59;;;;;;;38.70;7.43;;;4.10;99.90;;;;;;5011083;28;20049;-67
2024/01/25 05:46:25;;;;;;;39.60;8.75;;;4.10;99.90;;;;;;5028519;28;20045;-69
2024/01/25 05:48:51;;;;;;;46.63;7.60;;;4.10;99.90;;;;;;5010769;28;20095;-67
2024/01/25 05:51:17;;;;;;;35.42;6.38;;;4.10;99.90;;;;;;5010615;28;20573;-68
2024/01/25 05:53:43;;;;;;;54.03;7.75;;;4.00;99.90;;;;;;5040968;28;20034;-68
2024/01/25 05:56:09;;;;;;;41.25;5.55;;;4.00;99.90;;;;;;5027712;28;20561;-68
2024/01/25 05:58:34;;;;;;;42.53;8.43;;;4.00;99.90;;;;;;5010934;28;20107;-67
2024/01/25 06:01:00;;;;;;;45.63;8.32;;;3.90;99.90;;;;;;4994164;28;20466;-68
2024/01/25 06:03:26;;;;;;;41.43;7.73;;;4.00;99.90;;;;;;5029373;28;20122;-67
2024/01/25 06:05:51;;;;;;;38.63;7.00;;;3.90;99.90;;;;;;5026965;28;20043;-68
2024/01/25 06:08:17;;;;;;;38.33;7.00;;;3.90;99.90;;;;;;5028239;28;20056;-68
2024/01/25 06:10:43;;;;;;;51.00;7.33;;;3.90;99.90;;;;;;5027468;28;20029;-67
2024/01/25 06:13:09;;;;;;;43.50;7.35;;;3.80;99.90;;;;;;5005066;28;20331;-68
2024/01/25 06:15:34;;;;;;;38.55;7.95;;;3.80;99.90;;;;;;5031112;28;20042;-68
2024/01/25 06:18:00;;;;;;;42.05;8.98;;;3.80;99.90;;;;;;5010581;28;20041;-69
2024/01/25 06:20:26;;;;;;;43.70;6.40;;;3.80;99.90;;;;;;5027325;28;20464;-67
2024/01/25 06:22:52;;;;;;;42.70;6.80;;;3.80;99.90;;;;;;5010292;28;20041;-68
2024/01/25 06:25:17;;;;;;;53.87;7.57;;;3.70;99.90;;;;;;5009855;28;20099;-69
2024/01/25 06:27:43;;;;;;;39.20;6.87;;;3.70;99.90;;;;;;5037310;28;20116;-68
2024/01/25 06:30:09;;;;;;;44.03;8.13;;;3.70;99.90;;;;;;5013076;28;20067;-68
2024/01/25 06:32:35;;;;;;;32.30;7.85;;;3.70;99.90;;;;;;5010013;28;20548;-67
2024/01/25 06:35:01;;;;;;;40.87;6.97;;;3.70;99.90;;;;;;5029925;28;20034;-69
2024/01/25 06:37:26;;;;;;;40.80;7.67;;;3.60;99.90;;;;;;5027652;28;20065;-68
2024/01/25 06:39:52;;;;;;;41.93;7.83;;;3.50;99.90;;;;;;5028750;28;20049;-68
2024/01/25 06:42:17;;;;;;;37.33;10.00;;;3.50;99.90;;;;;;5028905;28;20045;-67
2024/01/25 06:44:44;;;;;;;37.40;6.50;;;3.40;99.90;;;;;;5026027;28;20055;-67
2024/01/25 06:47:10;;;;;;;34.22;8.10;;;3.40;99.90;;;;;;5027392;28;20042;-67
2024/01/25 06:49:35;;;;;;;42.63;8.82;;;3.40;99.90;;;;;;5009078;28;20383;-67
2024/01/25 06:52:01;;;;;;;42.10;8.20;;;3.40;99.90;;;;;;5027041;28;20038;-68
2024/01/25 06:54:27;;;;;;;44.20;7.77;;;3.50;99.90;;;;;;5027225;28;20120;-69
2024/01/25 06:56:52;;;;;;;51.53;7.53;;;3.50;99.90;;;;;;5009126;28;20048;-67
2024/01/25 06:59:18;;;;;;;42.53;7.07;;;3.50;99.90;;;;;;5016503;28;20272;-67
2024/01/25 07:01:44;;;;;;;45.80;8.23;;;3.60;99.90;;;;;;5027552;28;20041;-67
2024/01/25 07:04:09;;;;;;;42.07;7.50;;;3.50;99.90;;;;;;5009274;28;20049;-67
2024/01/25 07:06:35;;;;;;;42.70;7.93;;;3.60;99.90;;;;;;5026926;28;20037;-67
2024/01/25 07:09:00;;;;;;;41.53;8.50;;;3.60;99.90;;;;;;5036227;28;20038;-67
2024/01/25 07:11:26;;;;;;;45.57;7.17;;;3.60;99.90;;;;;;5033553;28;20042;-69
2024/01/25 07:13:52;;;;;;;35.00;7.93;;;3.60;99.90;;;;;;5024650;28;20064;-68
2024/01/25 07:16:19;;;;;;;45.07;8.07;;;3.60;99.90;;;;;;5029592;28;20421;-69
2024/01/25 07:18:45;;;;;;;48.22;8.73;;;3.60;99.90;;;;;;5040484;28;20210;-67
2024/01/25 07:21:10;;;;;;;56.05;7.55;;;3.60;99.90;;;;;;5010046;28;20619;-68
2024/01/25 07:23:36;;;;;;;45.55;8.82;;;3.60;99.90;;;;;;5026435;28;20045;-68
2024/01/25 07:26:02;;;;;;;46.53;8.63;;;3.60;99.90;;;;;;5010258;28;20504;-67
2024/01/25 07:28:27;;;;;;;55.72;8.60;;;3.60;99.90;;;;;;5029110;28;20065;-68
2024/01/25 07:30:53;;;;;;;45.50;7.57;;;3.70;99.90;;;;;;5008773;28;20041;-68
2024/01/25 07:33:19;;;;;;;44.97;7.60;;;3.70;99.90;;;;;;5029694;28;20521;-68
2024/01/25 07:35:48;;;;;;;60.13;9.73;;;3.70;99.90;;;;;;5035720;28;20426;-67
2024/01/25 07:38:16;;;;;;;44.95;8.68;;;3.70;99.90;;;;;;5016638;28;20037;-67
2024/01/25 07:40:42;;;;;;;50.08;9.98;;;3.70;99.90;;;;;;5030342;28;20038;-67
2024/01/25 07:43:08;;;;;;;42.03;9.93;;;3.70;99.90;;;;;;5042497;28;20428;-68
2024/01/25 07:45:34;;;;;;;52.17;9.45;;;3.80;99.90;;;;;;5030163;28;20280;-67
2024/01/25 07:48:00;;;;;;;53.92;8.15;;;3.80;99.90;;;;;;5030326;28;20523;-67
2024/01/25 07:50:25;;;;;;;47.30;8.38;;;3.90;99.90;;;;;;5013030;28;20040;-68
2024/01/25 07:52:51;;;;;;;52.43;9.03;;;3.90;99.90;;;;;;5012312;28;20057;-67
2024/01/25 07:55:17;;;;;;;43.65;7.45;;;4.00;99.90;;;;;;5030439;28;20037;-67
2024/01/25 07:57:42;;;;;;;41.55;7.07;;;4.20;99.90;;;;;;5030692;28;20116;-67
2024/01/25 08:00:09;;;;;;;51.97;10.17;;;4.30;99.90;;;;;;5031945;28;20048;-69
2024/01/25 08:02:41;;;;;;;;;;;4.40;99.90;;;;;;5031122;28;20077;-68
2024/01/25 08:05:07;;;;;;;47.55;7.95;;;4.40;99.90;;;;;;5023615;28;19917;-68
2024/01/25 08:07:33;;;;;;;42.78;8.57;;;4.50;99.90;;;;;;5017030;28;20060;-67
2024/01/25 08:09:59;;;;;;;52.53;9.15;;;4.60;99.90;;;;;;5030211;28;20060;-67
2024/01/25 08:12:25;;;;;;;39.60;8.23;;;4.60;99.90;;;;;;5030087;28;20064;-68
2024/01/25 08:14:51;;;;;;;52.38;8.05;;;4.60;99.90;;;;;;5029723;28;20053;-67
2024/01/25 08:17:16;;;;;;;53.25;9.65;;;4.70;99.90;;;;;;5043317;28;20048;-69
2024/01/25 08:19:42;;;;;;;49.03;10.53;;;4.80;99.90;;;;;;5015534;28;20067;-67
2024/01/25 08:22:09;;;;;;;39.50;7.53;;;4.80;99.90;;;;;;5045765;28;20152;-67
2024/01/25 08:24:35;;;;;;;45.03;9.10;;;4.90;99.90;;;;;;5015030;28;20041;-67
2024/01/25 08:27:01;;;;;;;45.65;9.60;;;4.90;99.90;;;;;;5034012;28;20033;-69
2024/01/25 08:29:27;;;;;;;43.80;7.97;;;5.00;99.90;;;;;;5032340;28;20075;-69
2024/01/25 08:31:52;;;;;;;46.17;8.10;;;5.00;99.90;;;;;;5041923;28;20037;-67
2024/01/25 08:34:18;;;;;;;41.60;8.27;;;5.10;99.90;;;;;;5004664;28;20092;-68
2024/01/25 08:36:43;;;;;;;54.63;9.83;;;5.10;99.90;;;;;;5029121;28;20034;-69
2024/01/25 08:39:09;;;;;;;46.87;9.30;;;5.20;99.90;;;;;;5031311;28;20068;-68
2024/01/25 08:41:35;;;;;;;48.10;9.63;;;5.10;99.90;;;;;;5030234;28;20469;-67
2024/01/25 08:44:00;;;;;;;39.22;7.78;;;5.10;99.90;;;;;;5029502;28;20331;-68
2024/01/25 08:46:26;;;;;;;47.25;8.10;;;5.10;99.90;;;;;;5028625;28;20509;-67
2024/01/25 08:48:52;;;;;;;46.50;8.77;;;5.10;99.90;;;;;;5029584;28;20049;-69
2024/01/25 08:51:17;;;;;;;51.13;9.20;;;5.10;99.90;;;;;;5011490;28;20033;-68
2024/01/25 08:53:43;;;;;;;49.90;8.20;;;5.10;99.90;;;;;;5030308;28;20557;-69
2024/01/25 08:56:09;;;;;;;38.37;7.57;;;5.10;99.90;;;;;;5008386;28;20048;-67
2024/01/25 08:58:35;;;;;;;39.50;8.50;;;5.20;99.90;;;;;;5033623;28;20049;-67
2024/01/25 09:01:00;;;;;;;59.10;8.52;;;5.20;99.90;;;;;;5047643;28;20195;-68
2024/01/25 09:03:26;;;;;;;46.58;8.73;;;5.20;99.90;;;;;;5013679;28;20045;-67
2024/01/25 09:05:52;;;;;;;54.70;9.03;;;5.30;99.90;;;;;;5026850;28;20049;-66
2024/01/25 09:08:17;;;;;;;38.47;8.30;;;5.40;99.90;;;;;;5030014;28;20509;-66
2024/01/25 09:10:44;;;;;;;50.33;11.30;;;5.50;99.90;;;;;;5029252;28;20115;-66
2024/01/25 09:13:10;;;;;;;42.50;7.45;;;5.60;99.90;;;;;;5011196;28;20030;-68
2024/01/25 09:15:36;;;;;;;38.95;9.80;;;5.70;99.90;;;;;;5029056;28;20044;-67
2024/01/25 09:18:02;;;;;;;46.85;8.45;;;5.80;99.90;;;;;;5026428;28;20064;-67
2024/01/25 09:20:28;;;;;;;43.00;8.27;;;5.90;99.90;;;;;;5008557;28;20038;-68
2024/01/25 09:22:55;;;;;;;45.93;8.17;;;6.00;99.90;;;;;;5027128;28;20049;-67
2024/01/25 09:25:20;;;;;;;50.75;10.65;;;6.20;99.90;;;;;;5008035;28;20496;-69
2024/01/25 09:27:46;;;;;;;46.40;8.75;;;6.30;99.90;;;;;;5016301;28;20033;-67
2024/01/25 09:30:12;;;;;;;51.10;8.13;;;6.40;99.90;;;;;;5027735;28;20041;-66
2024/01/25 09:32:38;;;;;;;31.73;7.18;;;6.60;99.90;;;;;;5010412;28;20041;-68
2024/01/25 09:35:03;;;;;;;46.03;8.47;;;6.70;99.90;;;;;;5027660;28;20584;-67
2024/01/25 09:37:29;;;;;;;48.90;8.68;;;6.90;99.90;;;;;;5027600;28;20806;-67
2024/01/25 09:39:55;;;;;;;47.70;8.90;;;7.10;99.90;;;;;;5026140;28;20063;-66
2024/01/25 09:42:20;;;;;;;49.97;9.23;;;7.20;99.90;;;;;;5026497;28;20460;-67
2024/01/25 09:44:46;;;;;;;35.93;7.67;;;7.30;99.90;;;;;;5028962;28;20275;-67
2024/01/25 09:47:13;;;;;;;42.23;7.57;;;7.40;99.90;;;;;;5010957;28;20065;-66
2024/01/25 09:49:39;;;;;;;42.35;7.63;;;7.40;99.90;;;;;;5005876;28;20037;-67
2024/01/25 09:52:05;;;;;;;39.67;7.00;;;7.30;99.90;;;;;;5028493;28;20044;-66
2024/01/25 09:54:38;;;;;;;40.05;8.55;;;7.10;99.90;;;;;;5027229;28;20343;-67
2024/01/25 09:57:12;;;;;;;42.53;8.27;;;7.00;99.90;;;;;;5038593;28;20037;-64
2024/01/25 09:59:38;;;;;;;34.17;6.82;;;6.80;99.90;;;;;;5026523;28;20052;-65
2024/01/25 10:02:04;;;;;;;32.77;7.60;;;6.70;99.90;;;;;;5024762;28;20033;-70
2024/01/25 10:04:29;;;;;;;42.42;8.55;;;6.60;99.90;;;;;;5025584;28;20298;-66
2024/01/25 10:06:58;;;;;;;46.67;7.30;;;6.60;99.90;;;;;;5026850;28;20095;-67
2024/01/25 10:09:24;;;;;;;41.80;8.15;;;6.50;99.90;;;;;;5027766;28;20088;-66
2024/01/25 10:11:49;;;;;;;53.07;9.97;;;6.40;99.90;;;;;;5027218;28;20045;-65
2024/01/25 10:14:15;;;;;;;38.50;8.50;;;6.40;99.90;;;;;;5026341;28;20069;-67
2024/01/25 10:16:41;;;;;;;37.47;9.67;;;6.40;99.90;;;;;;5029000;28;20029;-66
2024/01/25 10:19:09;;;;;;;58.93;10.27;;;6.40;99.90;;;;;;5010702;28;20041;-68
2024/01/25 10:21:36;;;;;;;49.90;9.10;;;6.50;99.90;;;;;;5028142;28;20124;-66
2024/01/25 10:24:02;;;;;;;;;;;6.60;99.90;;;;;;5011048;28;20037;-66
2024/01/25 10:26:31;;;;;;;43.08;8.90;;;6.70;99.90;;;;;;5030151;28;20008;-66
2024/01/25 10:28:58;;;;;;;45.10;7.68;;;6.90;99.90;;;;;;5027708;28;20047;-66
2024/01/25 10:31:27;;;;;;;52.63;10.23;;;7.00;99.90;;;;;;5036576;28;20045;-66
2024/01/25 10:33:53;;;;;;;46.30;9.32;;;7.20;99.90;;;;;;5010638;28;20033;-67
2024/01/25 10:36:21;;;;;;;54.20;9.70;;;7.50;99.90;;;;;;5027927;28;20040;-66
2024/01/25 10:38:52;;;;;;;41.55;8.55;;;7.90;99.90;;;;;;5031439;28;20034;-66
2024/01/25 10:41:19;;;;;;;37.95;8.73;;;8.10;99.90;;;;;;5029740;28;20041;-66
2024/01/25 10:43:45;;;;;;;43.60;8.55;;;8.20;99.90;;;;;;4994446;28;20513;-66
2024/01/25 10:46:11;;;;;;;43.10;9.57;;;8.30;99.90;;;;;;5028826;28;20037;-66
2024/01/25 10:48:38;;;;;;;42.08;7.30;;;8.30;99.90;;;;;;5010723;28;20076;-66
2024/01/25 10:51:05;;;;;;;36.67;8.02;;;8.30;99.90;;;;;;5032008;28;20041;-66
2024/01/25 10:53:35;;;;;;;42.88;10.40;;;8.30;99.90;;;;;;5025630;28;20045;-67
2024/01/25 10:56:02;;;;;;;37.13;8.13;;;8.40;99.90;;;;;;5013386;28;20037;-65
2024/01/25 10:58:35;;;;;;;40.22;9.13;;;8.50;99.90;;;;;;5034686;28;20045;-66
2024/01/25 11:01:03;;;;;;;35.22;8.57;;;8.60;99.90;;;;;;5041967;28;20037;-68
2024/01/25 11:03:30;;;;;;;35.42;8.40;;;8.80;99.90;;;;;;5006296;28;20041;-67
2024/01/25 11:06:09;;;;;;;34.17;7.72;;;9.00;99.90;;;;;;5024087;28;20061;-66
2024/01/25 11:08:38;;;;;;;43.65;9.48;;;9.30;99.90;;;;;;5035968;28;20045;-67
2024/01/25 11:11:09;;;;;;;42.83;8.85;;;9.70;99.90;;;;;;5024704;28;20091;-66
2024/01/25 11:13:35;;;;;;;33.83;8.07;;;10.00;99.90;;;;;;5023080;28;20053;-66
2024/01/25 11:16:28;;;;;;;47.08;7.82;;;10.20;99.90;;;;;;5025492;28;20033;-67
2024/01/25 11:18:59;;;;;;;42.90;8.43;;;10.30;99.90;;;;;;5036340;28;20425;-67
2024/01/25 11:21:45;;;;;;;36.85;8.35;;;10.40;99.90;;;;;;5025542;28;20041;-66
2024/01/25 11:24:14;;;;;;;35.60;7.35;;;10.40;99.90;;;;;;5007785;28;20145;-66
2024/01/25 11:26:44;;;;;;;35.85;7.68;;;10.40;99.90;;;;;;5025241;28;20365;-66
2024/01/25 11:29:14;;;;;;;33.65;7.68;;;10.50;99.90;;;;;;5024748;28;20493;-68
2024/01/25 11:31:40;;;;;;;42.10;8.77;;;10.60;99.90;;;;;;5025366;28;20531;-68
2024/01/25 11:34:05;;;;;;;50.23;10.77;;;10.80;99.90;;;;;;5026187;28;20057;-66
2024/01/25 11:36:31;;;;;;;46.27;10.47;;;10.90;99.90;;;;;;5007385;28;20045;-67
2024/01/25 11:38:57;;;;;;;33.00;7.60;;;10.90;99.90;;;;;;5026917;28;20310;-68
2024/01/25 11:41:23;;;;;;;;;;;11.00;99.90;;;;;;5025724;28;20413;-68
2024/01/25 11:43:49;;;;;;;33.28;7.05;;;11.10;99.90;;;;;;5025217;28;20305;-67
2024/01/25 11:46:16;;;;;;;40.58;8.00;;;11.30;99.90;;;;;;5033437;28;20044;-67
2024/01/25 11:48:42;;;;;;;33.08;8.18;;;11.30;99.90;;;;;;5024108;28;20676;-67
2024/01/25 11:51:11;;;;;;;38.30;7.88;;;11.30;99.90;;;;;;4993423;28;20037;-66
2024/01/25 11:53:37;;;;;;;41.28;9.20;;;11.30;99.90;;;;;;5026104;28;20029;-68
2024/01/25 11:56:06;;;;;;;33.78;7.95;;;11.30;99.90;;;;;;5025456;28;20044;-67
2024/01/25 11:58:32;;;;;;;32.53;8.25;;;11.20;99.90;;;;;;5025688;28;20808;-67
2024/01/25 12:00:58;;;;;;;35.88;7.72;;;11.40;99.90;;;;;;5024831;28;20616;-67
2024/01/25 12:03:24;;;;;;;38.88;7.88;;;11.20;99.90;;;;;;5024713;28;20029;-66
2024/01/25 12:05:51;;;;;;;29.10;7.15;;;11.00;99.90;;;;;;5006128;28;20052;-69
2024/01/25 12:08:17;;;;;;;30.80;7.63;;;10.90;99.90;;;;;;4996102;28;20041;-67
2024/01/25 12:10:42;;;;;;;36.42;7.75;;;10.70;99.90;;;;;;5025813;28;20413;-69
2024/01/25 12:13:09;;;;;;;37.37;9.57;;;10.40;99.90;;;;;;5005940;28;20501;-68
2024/01/25 12:15:35;;;;;;;38.47;8.55;;;10.30;99.90;;;;;;5000224;28;20052;-67
2024/01/25 12:18:01;;;;;;;28.63;7.13;;;10.20;99.90;;;;;;5006558;28;20578;-69
2024/01/25 12:20:28;;;;;;;34.30;6.95;;;10.10;99.90;;;;;;5024850;28;20375;-69
2024/01/25 12:22:54;;;;;;;35.08;7.75;;;9.90;99.90;;;;;;5006916;28;20278;-69
2024/01/25 12:25:20;;;;;;;39.88;7.80;;;9.70;99.90;;;;;;5025151;28;20029;-69
2024/01/25 12:27:49;;;;;;;37.22;9.70;;;9.60;99.90;;;;;;5025328;28;20052;-69
2024/01/25 12:30:15;;;;;;;32.17;7.63;;;9.50;99.90;;;;;;5025037;28;20490;-69
2024/01/25 12:32:41;;;;;;;31.10;8.73;;;9.40;99.90;;;;;;5025384;28;20059;-69
2024/01/25 12:35:08;;;;;;;35.28;7.80;;;9.30;99.90;;;;;;5007402;28;20472;-69
2024/01/25 12:37:34;;;;;;;36.33;7.78;;;9.30;99.90;;;;;;5007874;28;20112;-69
2024/01/25 12:40:00;;;;;;;33.78;8.65;;;9.30;99.90;;;;;;5006961;28;20084;-69
2024/01/25 12:42:26;;;;;;;47.25;7.97;;;9.40;99.90;;;;;;5006856;28;20508;-69